createdAt,value
2022-11-10T00:00:46.349Z,64.96
2022-11-10T00:05:08.508Z,64.56
2022-11-10T00:09:27.025Z,64.18
2022-11-10T00:13:57.764Z,63.88
2022-11-10T00:18:16.756Z,63.76
2022-11-10T00:22:39.914Z,64.01
2022-11-10T00:26:59.527Z,63.56
2022-11-10T00:31:18.139Z,64.34
2022-11-10T00:35:37.614Z,64.77
2022-11-10T00:39:58.839Z,64.96
2022-11-10T00:44:17.312Z,64.86
2022-11-10T00:48:35.729Z,64.18
2022-11-10T00:52:54.219Z,64.07
2022-11-10T00:57:16.240Z,63.85
2022-11-10T01:01:35.022Z,63.57
2022-11-10T01:05:53.660Z,64.56
2022-11-10T01:10:12.539Z,64.36
2022-11-10T01:14:33.577Z,64.21
2022-11-10T01:18:53.621Z,63.46
2022-11-10T01:23:13.751Z,63.73
2022-11-10T01:27:32.724Z,63.63
2022-11-10T01:31:54.216Z,63.22
2022-11-10T01:36:14.970Z,63.69
2022-11-10T01:40:33.479Z,63.81
2022-11-10T01:45:43.065Z,64.07
2022-11-10T01:50:04.896Z,63.38
2022-11-10T01:54:29.283Z,63.25
2022-11-10T01:58:56.597Z,62.98
2022-11-10T02:03:24.510Z,62.93
2022-11-10T02:07:46.881Z,61.96
2022-11-10T02:12:05.858Z,62.69
2022-11-10T02:16:25.291Z,62.65
2022-11-10T02:20:49.956Z,62.95
2022-11-10T02:25:10.466Z,62.42
2022-11-10T02:29:29.477Z,63.40
2022-11-10T02:33:48.248Z,64.27
2022-11-10T02:38:09.687Z,63.72
2022-11-10T02:42:28.571Z,63.52
2022-11-10T02:46:47.460Z,64.21
2022-11-10T02:51:06.507Z,64.03
2022-11-10T02:55:28.072Z,64.02
2022-11-10T02:59:46.752Z,64.26
2022-11-10T03:04:05.919Z,63.67
2022-11-10T03:08:24.822Z,62.93
2022-11-10T03:12:45.888Z,63.70
2022-11-10T03:17:04.579Z,63.67
2022-11-10T03:21:23.540Z,63.26
2022-11-10T03:25:42.340Z,62.90
2022-11-10T03:30:03.517Z,63.67
2022-11-10T03:34:22.316Z,63.32
2022-11-10T03:38:41.038Z,63.51
2022-11-10T03:42:59.536Z,63.59
2022-11-10T03:47:21.162Z,63.54
2022-11-10T03:51:40.117Z,63.70
2022-11-10T03:55:58.561Z,63.28
2022-11-10T04:00:18.832Z,63.20
2022-11-10T04:04:52.508Z,63.53
2022-11-10T04:09:11.936Z,63.55
2022-11-10T04:13:43.148Z,63.88
2022-11-10T04:18:21.131Z,62.94
2022-11-10T04:22:55.235Z,62.70
2022-11-10T04:27:14.039Z,62.31
2022-11-10T04:31:37.495Z,62.66
2022-11-10T04:35:55.984Z,63.31
2022-11-10T04:40:18.121Z,63.52
2022-11-10T04:44:36.515Z,64.14
2022-11-10T04:48:57.680Z,64.13
2022-11-10T04:53:16.360Z,63.23
2022-11-10T04:57:37.691Z,62.59
2022-11-10T05:01:56.280Z,62.42
2022-11-10T05:06:15.149Z,62.92
2022-11-10T05:10:34.431Z,63.21
2022-11-10T05:14:56.120Z,63.32
2022-11-10T05:19:15.026Z,63.79
2022-11-10T05:23:44.162Z,63.25
2022-11-10T05:28:03.485Z,64.32
2022-11-10T05:32:24.741Z,63.25
2022-11-10T05:36:43.173Z,63.21
2022-11-10T05:41:02.107Z,62.71
2022-11-10T05:45:21.599Z,63.06
2022-11-10T05:49:43.015Z,63.56
2022-11-10T05:54:01.960Z,63.78
2022-11-10T05:58:20.564Z,64.17
2022-11-10T06:02:39.893Z,63.18
2022-11-10T06:07:01.322Z,64.26
2022-11-10T06:11:20.617Z,64.39
2022-11-10T06:15:40.189Z,63.13
2022-11-10T06:19:59.097Z,63.60
2022-11-10T06:24:20.361Z,63.41
2022-11-10T06:28:39.383Z,64.02
2022-11-10T06:32:58.389Z,64.15
2022-11-10T06:37:17.322Z,63.61
2022-11-10T06:41:38.563Z,63.54
2022-11-10T06:45:57.091Z,62.93
2022-11-10T06:50:17.170Z,63.67
2022-11-10T06:54:35.961Z,63.50
2022-11-10T06:58:57.043Z,62.96
2022-11-10T07:03:18.281Z,63.68
2022-11-10T07:07:37.264Z,63.36
2022-11-10T07:11:57.428Z,63.44
2022-11-10T07:16:24.209Z,63.52
2022-11-10T07:20:44.107Z,63.20
2022-11-10T07:25:02.862Z,62.68
2022-11-10T07:29:21.437Z,63.28
2022-11-10T07:33:44.144Z,63.44
2022-11-10T07:38:07.408Z,63.06
2022-11-10T07:42:26.167Z,62.95
2022-11-10T07:46:44.728Z,63.07
2022-11-10T07:51:05.903Z,60.16
2022-11-10T07:55:24.420Z,58.35
2022-11-10T07:59:42.915Z,59.65
2022-11-10T08:04:01.563Z,59.11
2022-11-10T08:08:23.067Z,59.66
2022-11-10T08:12:41.740Z,59.44
2022-11-10T08:17:00.352Z,58.51
2022-11-10T08:21:18.928Z,58.28
2022-11-10T08:25:41.978Z,56.42
2022-11-10T08:30:00.834Z,56.31
2022-11-10T08:34:19.293Z,55.99
2022-11-10T08:38:37.982Z,56.36
2022-11-10T08:43:07.451Z,55.95
2022-11-10T08:47:26.267Z,55.08
2022-11-10T08:51:45.038Z,54.30
2022-11-10T08:56:03.837Z,52.97
2022-11-10T09:00:25.335Z,52.44
2022-11-10T09:04:44.825Z,52.37
2022-11-10T09:09:03.837Z,51.74
2022-11-10T09:13:29.075Z,52.72
2022-11-10T09:17:51.092Z,53.20
2022-11-10T09:22:09.798Z,53.46
2022-11-10T09:26:28.683Z,54.21
2022-11-10T09:30:50.380Z,53.26
2022-11-10T09:35:13.283Z,54.03
2022-11-10T09:39:32.397Z,54.38
2022-11-10T09:44:04.764Z,54.06
2022-11-10T09:48:30.485Z,53.27
2022-11-10T09:52:55.438Z,54.58
2022-11-10T09:57:18.759Z,53.76
2022-11-10T10:01:48.122Z,54.32
2022-11-10T10:06:13.754Z,53.94
2022-11-10T10:10:42.515Z,53.73
2022-11-10T10:15:18.460Z,53.45
2022-11-10T10:19:49.926Z,52.50
2022-11-10T10:24:21.538Z,52.42
2022-11-10T10:28:49.397Z,52.35
2022-11-10T10:33:19.843Z,51.20
2022-11-10T10:37:48.826Z,50.66
2022-11-10T10:42:18.971Z,50.02
2022-11-10T10:46:48.952Z,50.21
2022-11-10T10:51:08.221Z,48.41
2022-11-10T10:55:32.963Z,48.36
2022-11-10T10:59:52.241Z,48.56
2022-11-10T11:04:36.548Z,47.57
2022-11-10T11:09:04.499Z,48.16
2022-11-10T11:13:28.039Z,49.44
2022-11-10T11:17:58.675Z,48.41
2022-11-10T11:22:49.756Z,48.83
2022-11-10T11:27:21.683Z,47.73
2022-11-10T11:31:53.687Z,46.30
2022-11-10T11:36:30.791Z,44.92
2022-11-10T11:41:00.972Z,44.38
2022-11-10T11:45:30.538Z,44.44
2022-11-10T11:50:15.634Z,44.62
2022-11-10T11:54:55.057Z,46.57
2022-11-10T11:59:51.594Z,46.21
2022-11-10T12:04:47.649Z,43.59
2022-11-10T12:09:22.520Z,41.40
2022-11-10T12:13:56.215Z,44.14
2022-11-10T12:18:32.388Z,44.00
2022-11-10T12:23:05.883Z,42.17
2022-11-10T12:27:33.330Z,40.04
2022-11-10T12:31:58.696Z,39.26
2022-11-10T12:36:24.933Z,39.41
2022-11-10T12:40:50.070Z,39.07
2022-11-10T12:45:19.980Z,39.12
2022-11-10T12:49:41.846Z,36.53
2022-11-10T12:54:03.544Z,36.25
2022-11-10T12:58:23.057Z,35.37
2022-11-10T13:02:46.323Z,35.25
2022-11-10T13:07:13.199Z,35.36
2022-11-10T13:11:38.040Z,35.67
2022-11-10T13:15:59.992Z,36.16
2022-11-10T13:20:53.352Z,35.79
2022-11-10T13:25:53.578Z,37.41
2022-11-10T13:30:43.669Z,39.17
2022-11-10T13:35:51.145Z,41.11
2022-11-10T13:40:41.175Z,42.71
2022-11-10T13:45:37.004Z,43.23
2022-11-10T13:50:10.677Z,42.23
2022-11-10T13:55:16.885Z,41.63
2022-11-10T13:59:48.991Z,40.53
2022-11-10T14:04:10.453Z,40.55
2022-11-10T14:08:38.589Z,40.92
2022-11-10T14:13:07.318Z,40.06
2022-11-10T14:17:31.164Z,40.21
2022-11-10T14:21:58.550Z,40.26
2022-11-10T14:26:27.280Z,39.99
2022-11-10T14:30:55.088Z,39.74
2022-11-10T14:35:24.396Z,39.75
2022-11-10T14:39:45.866Z,38.74
2022-11-10T14:44:08.579Z,38.73
2022-11-10T14:48:30.343Z,39.20
2022-11-10T14:52:54.431Z,38.72
2022-11-10T14:57:21.767Z,39.16
2022-11-10T15:01:45.019Z,39.70
2022-11-10T15:06:06.431Z,39.81
2022-11-10T15:10:29.520Z,41.01
2022-11-10T15:15:00.950Z,42.11
2022-11-10T15:19:30.872Z,42.23
2022-11-10T15:23:59.632Z,42.80
2022-11-10T15:28:30.069Z,43.48
2022-11-10T15:32:52.326Z,44.63
2022-11-10T15:37:30.868Z,46.11
2022-11-10T15:41:52.904Z,47.77
2022-11-10T15:46:18.811Z,47.99
2022-11-10T15:50:40.727Z,49.49
2022-11-10T15:55:00.395Z,50.67
2022-11-10T15:59:19.281Z,51.76
2022-11-10T16:03:38.230Z,51.30
2022-11-10T16:07:59.976Z,51.04
2022-11-10T16:12:23.583Z,52.43
2022-11-10T16:16:44.732Z,53.02
2022-11-10T16:21:03.367Z,52.97
2022-11-10T16:25:27.757Z,53.96
2022-11-10T16:29:50.008Z,54.49
2022-11-10T16:34:08.843Z,54.86
2022-11-10T16:38:32.388Z,54.74
2022-11-10T16:42:54.172Z,54.52
2022-11-10T16:47:21.809Z,54.71
2022-11-10T16:51:48.784Z,55.04
2022-11-10T16:56:08.572Z,56.36
2022-11-10T17:00:30.904Z,56.53
2022-11-10T17:04:49.960Z,56.70
2022-11-10T17:09:17.285Z,56.51
2022-11-10T17:13:35.846Z,56.33
2022-11-10T17:18:03.470Z,56.36
2022-11-10T17:22:25.490Z,56.89
2022-11-10T17:26:44.962Z,56.84
2022-11-10T17:31:04.152Z,56.84
2022-11-10T17:35:26.863Z,57.46
2022-11-10T17:39:45.562Z,59.12
2022-11-10T17:44:04.326Z,58.35
2022-11-10T17:48:22.996Z,58.02
2022-11-10T17:52:44.931Z,58.53
2022-11-10T17:57:04.728Z,57.89
2022-11-10T18:01:24.054Z,58.19
2022-11-10T18:05:45.752Z,58.57
2022-11-10T18:10:08.559Z,58.27
2022-11-10T18:14:27.251Z,58.44
2022-11-10T18:18:46.070Z,58.42
2022-11-10T18:23:04.612Z,59.13
2022-11-10T18:27:27.230Z,59.13
2022-11-10T18:31:46.054Z,59.28
2022-11-10T18:36:05.467Z,59.40
2022-11-10T18:40:24.373Z,59.43
2022-11-10T18:44:45.893Z,58.93
2022-11-10T18:49:04.663Z,59.37
2022-11-10T18:53:23.509Z,59.35
2022-11-10T18:57:42.737Z,59.31
2022-11-10T19:02:03.931Z,59.85
2022-11-10T19:06:23.232Z,59.71
2022-11-10T19:10:45.224Z,60.24
2022-11-10T19:15:04.018Z,59.71
2022-11-10T19:19:25.508Z,59.66
2022-11-10T19:23:44.537Z,60.42
2022-11-10T19:28:04.916Z,59.89
2022-11-10T19:32:24.962Z,59.96
2022-11-10T19:36:46.519Z,60.38
2022-11-10T19:41:10.004Z,59.73
2022-11-10T19:45:28.519Z,59.94
2022-11-10T19:49:46.872Z,60.02
2022-11-10T19:54:09.086Z,60.40
2022-11-10T19:58:28.088Z,60.12
2022-11-10T20:02:46.898Z,59.82
2022-11-10T20:07:18.216Z,59.64
2022-11-10T20:11:39.584Z,60.34
2022-11-10T20:15:58.129Z,60.42
2022-11-10T20:20:17.530Z,60.43
2022-11-10T20:24:36.779Z,60.46
2022-11-10T20:28:58.025Z,60.65
2022-11-10T20:33:16.545Z,59.96
2022-11-10T20:37:36.380Z,59.61
2022-11-10T20:41:55.108Z,59.69
2022-11-10T20:50:59.716Z,59.98
2022-11-10T20:55:26.051Z,60.17
2022-11-10T20:59:59.200Z,60.47
2022-11-10T21:04:25.602Z,59.91
2022-11-10T21:08:45.324Z,59.99
2022-11-10T21:13:04.482Z,60.55
2022-11-10T21:17:23.774Z,60.61
2022-11-10T21:21:45.648Z,60.03
2022-11-10T21:26:04.648Z,59.92
2022-11-10T21:30:25.625Z,60.23
2022-11-10T21:34:44.418Z,61.20
2022-11-10T21:39:05.666Z,61.47
2022-11-10T21:43:24.532Z,61.58
2022-11-10T21:47:43.721Z,61.53
2022-11-10T21:52:02.444Z,60.93
2022-11-10T21:56:23.589Z,61.58
2022-11-10T22:00:42.174Z,60.99
2022-11-10T22:05:00.990Z,60.84
2022-11-10T22:09:40.036Z,60.56
2022-11-10T22:14:14.019Z,60.85
2022-11-10T22:18:42.221Z,60.47
2022-11-10T22:23:00.736Z,60.83
2022-11-10T22:27:19.260Z,61.13
2022-11-10T22:31:40.585Z,61.41
2022-11-10T22:36:00.482Z,61.41
2022-11-10T22:40:37.458Z,61.35
2022-11-10T22:44:56.294Z,61.56
2022-11-10T22:49:19.662Z,61.57
2022-11-10T22:53:40.378Z,61.42
2022-11-10T22:57:59.153Z,61.09
2022-11-10T23:02:18.357Z,61.40
2022-11-10T23:06:39.685Z,61.40
2022-11-10T23:11:03.432Z,61.64
2022-11-10T23:15:23.167Z,61.92
2022-11-10T23:19:41.625Z,61.75
2022-11-10T23:24:02.864Z,61.81
2022-11-10T23:28:21.582Z,61.89
2022-11-10T23:32:40.246Z,62.18
2022-11-10T23:36:58.789Z,62.39
2022-11-10T23:41:23.643Z,61.87
2022-11-10T23:46:05.761Z,61.80
2022-11-10T23:50:22.912Z,61.88
2022-11-10T23:54:41.438Z,61.35
2022-11-10T23:59:02.677Z,61.12
